sensor_id;sensor_type;location;lat;lon;timestamp;P1;durP1;ratioP1;P2;durP2;ratioP2
63690;SDS011;49837;57.280;27.070;2022-09-09T00:00:39;2.3;;;1.0;;
63690;SDS011;49837;57.280;27.070;2022-09-09T00:01:49;1.9;;;0.9;;
63690;SDS011;49837;57.280;27.070;2022-09-09T00:04:00;1.7;;;1.0;;
63690;SDS011;49837;57.280;27.070;2022-09-09T00:04:58;3.5;;;1.2;;
63690;SDS011;49837;57.280;27.070;2022-09-09T00:06:05;1.7;;;1.1;;
63690;SDS011;49837;57.280;27.070;2022-09-09T00:06:52;4.3;;;1.1;;
63690;SDS011;49837;57.280;27.070;2022-09-09T00:07:55;2.4;;;1.1;;
63690;SDS011;49837;57.280;27.070;2022-09-09T00:09:18;1.7;;;1.3;;
63690;SDS011;49837;57.280;27.070;2022-09-09T00:11:02;2.0;;;0.8;;
63690;SDS011;49837;57.280;27.070;2022-09-09T00:12:12;1.2;;;1.0;;
63690;SDS011;49837;57.280;27.070;2022-09-09T00:13:27;2.8;;;1.1;;
63690;SDS011;49837;57.280;27.070;2022-09-09T00:14:11;2.4;;;1.3;;
63690;SDS011;49837;57.280;27.070;2022-09-09T00:15:30;2.4;;;1.2;;
63690;SDS011;49837;57.280;27.070;2022-09-09T00:16:19;3.1;;;1.1;;
63690;SDS011;49837;57.280;27.070;2022-09-09T00:17:20;3.3;;;1.4;;
63690;SDS011;49837;57.280;27.070;2022-09-09T00:18:41;2.2;;;1.2;;
63690;SDS011;49837;57.280;27.070;2022-09-09T00:20:28;2.3;;;1.2;;
63690;SDS011;49837;57.280;27.070;2022-09-09T00:21:30;2.0;;;1.1;;
63690;SDS011;49837;57.280;27.070;2022-09-09T00:22:30;4.9;;;1.5;;
63690;SDS011;49837;57.280;27.070;2022-09-09T00:23:31;3.2;;;1.3;;
63690;SDS011;49837;57.280;27.070;2022-09-09T00:24:51;3.3;;;1.3;;
63690;SDS011;49837;57.280;27.070;2022-09-09T00:26:44;1.9;;;1.3;;
63690;SDS011;49837;57.280;27.070;2022-09-09T00:27:46;1.4;;;1.2;;
63690;SDS011;49837;57.280;27.070;2022-09-09T00:29:56;2.1;;;1.1;;
63690;SDS011;49837;57.280;27.070;2022-09-09T00:30:54;3.6;;;1.3;;
63690;SDS011;49837;57.280;27.070;2022-09-09T00:31:55;5.4;;;1.2;;
63690;SDS011;49837;57.280;27.070;2022-09-09T00:33:01;5.3;;;1.3;;
63690;SDS011;49837;57.280;27.070;2022-09-09T00:36:07;1.8;;;1.1;;
63690;SDS011;49837;57.280;27.070;2022-09-09T00:37:09;3.9;;;1.5;;
63690;SDS011;49837;57.280;27.070;2022-09-09T00:38:14;1.7;;;1.2;;
63690;SDS011;49837;57.280;27.070;2022-09-09T00:39:23;2.4;;;1.2;;
63690;SDS011;49837;57.280;27.070;2022-09-09T00:42:31;2.8;;;1.2;;
63690;SDS011;49837;57.280;27.070;2022-09-09T00:43:29;5.1;;;1.4;;
63690;SDS011;49837;57.280;27.070;2022-09-09T00:44:33;2.7;;;1.2;;
63690;SDS011;49837;57.280;27.070;2022-09-09T00:45:38;2.9;;;1.2;;
63690;SDS011;49837;57.280;27.070;2022-09-09T00:46:33;2.1;;;1.1;;
63690;SDS011;49837;57.280;27.070;2022-09-09T00:48:38;2.2;;;1.1;;
63690;SDS011;49837;57.280;27.070;2022-09-09T00:49:52;1.9;;;1.2;;
63690;SDS011;49837;57.280;27.070;2022-09-09T00:50:52;2.0;;;1.2;;
63690;SDS011;49837;57.280;27.070;2022-09-09T00:51:58;3.8;;;1.1;;
63690;SDS011;49837;57.280;27.070;2022-09-09T00:52:59;4.0;;;0.8;;
63690;SDS011;49837;57.280;27.070;2022-09-09T00:55:07;3.7;;;1.6;;
63690;SDS011;49837;57.280;27.070;2022-09-09T00:56:16;3.1;;;1.2;;
63690;SDS011;49837;57.280;27.070;2022-09-09T00:58:06;1.8;;;1.2;;
63690;SDS011;49837;57.280;27.070;2022-09-09T00:59:16;2.9;;;1.2;;
63690;SDS011;49837;57.280;27.070;2022-09-09T01:00:30;1.9;;;1.1;;
63690;SDS011;49837;57.280;27.070;2022-09-09T01:01:13;2.1;;;1.0;;
63690;SDS011;49837;57.280;27.070;2022-09-09T01:02:23;2.3;;;1.1;;
63690;SDS011;49837;57.280;27.070;2022-09-09T01:04:20;2.4;;;1.4;;
63690;SDS011;49837;57.280;27.070;2022-09-09T01:05:37;2.6;;;1.2;;
63690;SDS011;49837;57.280;27.070;2022-09-09T01:06:33;3.4;;;2.2;;
63690;SDS011;49837;57.280;27.070;2022-09-09T01:07:21;2.7;;;1.8;;
63690;SDS011;49837;57.280;27.070;2022-09-09T01:08:35;2.8;;;1.4;;
63690;SDS011;49837;57.280;27.070;2022-09-09T01:11:33;1.8;;;1.3;;
63690;SDS011;49837;57.280;27.070;2022-09-09T01:12:40;3.6;;;1.5;;
63690;SDS011;49837;57.280;27.070;2022-09-09T01:13:39;3.1;;;1.6;;
63690;SDS011;49837;57.280;27.070;2022-09-09T01:14:40;2.7;;;1.5;;
63690;SDS011;49837;57.280;27.070;2022-09-09T01:15:42;3.1;;;1.3;;
63690;SDS011;49837;57.280;27.070;2022-09-09T01:16:42;2.6;;;1.1;;
63690;SDS011;49837;57.280;27.070;2022-09-09T01:18:48;2.4;;;1.1;;
63690;SDS011;49837;57.280;27.070;2022-09-09T01:19:52;3.1;;;1.2;;
63690;SDS011;49837;57.280;27.070;2022-09-09T01:21:56;2.6;;;1.2;;
63690;SDS011;49837;57.280;27.070;2022-09-09T01:26:13;2.4;;;1.2;;
63690;SDS011;49837;57.280;27.070;2022-09-09T01:27:06;2.8;;;1.3;;
63690;SDS011;49837;57.280;27.070;2022-09-09T01:28:08;2.3;;;1.3;;
63690;SDS011;49837;57.280;27.070;2022-09-09T01:29:12;2.6;;;1.2;;
63690;SDS011;49837;57.280;27.070;2022-09-09T01:30:12;1.9;;;1.0;;
63690;SDS011;49837;57.280;27.070;2022-09-09T01:31:14;1.9;;;1.2;;
63690;SDS011;49837;57.280;27.070;2022-09-09T01:33:21;1.9;;;1.1;;
63690;SDS011;49837;57.280;27.070;2022-09-09T01:34:22;2.5;;;1.2;;
63690;SDS011;49837;57.280;27.070;2022-09-09T01:36:26;2.3;;;1.2;;
63690;SDS011;49837;57.280;27.070;2022-09-09T01:37:28;3.1;;;1.4;;
63690;SDS011;49837;57.280;27.070;2022-09-09T01:38:28;2.2;;;1.3;;
63690;SDS011;49837;57.280;27.070;2022-09-09T01:39:29;4.0;;;1.3;;
63690;SDS011;49837;57.280;27.070;2022-09-09T01:40:29;1.8;;;1.3;;
63690;SDS011;49837;57.280;27.070;2022-09-09T01:41:30;2.9;;;1.2;;
63690;SDS011;49837;57.280;27.070;2022-09-09T01:42:30;2.2;;;1.4;;
63690;SDS011;49837;57.280;27.070;2022-09-09T01:43:30;4.6;;;1.6;;
63690;SDS011;49837;57.280;27.070;2022-09-09T01:44:31;3.9;;;1.5;;
63690;SDS011;49837;57.280;27.070;2022-09-09T01:45:31;2.3;;;1.2;;
63690;SDS011;49837;57.280;27.070;2022-09-09T01:46:31;4.1;;;1.5;;
63690;SDS011;49837;57.280;27.070;2022-09-09T01:47:32;3.1;;;1.2;;
63690;SDS011;49837;57.280;27.070;2022-09-09T01:48:32;3.8;;;1.3;;
63690;SDS011;49837;57.280;27.070;2022-09-09T01:49:32;1.7;;;1.1;;
63690;SDS011;49837;57.280;27.070;2022-09-09T01:50:32;3.2;;;1.3;;
63690;SDS011;49837;57.280;27.070;2022-09-09T01:51:33;6.4;;;1.5;;
63690;SDS011;49837;57.280;27.070;2022-09-09T01:52:33;4.0;;;1.6;;
63690;SDS011;49837;57.280;27.070;2022-09-09T01:53:33;5.3;;;1.8;;
63690;SDS011;49837;57.280;27.070;2022-09-09T01:54:34;3.2;;;1.5;;
63690;SDS011;49837;57.280;27.070;2022-09-09T01:55:40;3.4;;;1.2;;
63690;SDS011;49837;57.280;27.070;2022-09-09T01:56:52;4.9;;;1.4;;
63690;SDS011;49837;57.280;27.070;2022-09-09T01:57:47;2.6;;;1.3;;
63690;SDS011;49837;57.280;27.070;2022-09-09T01:59:54;3.3;;;1.5;;
63690;SDS011;49837;57.280;27.070;2022-09-09T02:01:00;3.5;;;1.4;;
63690;SDS011;49837;57.280;27.070;2022-09-09T02:03:05;2.4;;;1.3;;
63690;SDS011;49837;57.280;27.070;2022-09-09T02:04:00;3.5;;;1.5;;
63690;SDS011;49837;57.280;27.070;2022-09-09T02:07:06;2.6;;;1.4;;
63690;SDS011;49837;57.280;27.070;2022-09-09T02:08:17;3.9;;;1.5;;
63690;SDS011;49837;57.280;27.070;2022-09-09T02:09:12;3.6;;;1.4;;
63690;SDS011;49837;57.280;27.070;2022-09-09T02:10:17;10.4;;;1.9;;
63690;SDS011;49837;57.280;27.070;2022-09-09T02:11:17;6.6;;;1.6;;
63690;SDS011;49837;57.280;27.070;2022-09-09T02:12:18;4.3;;;1.5;;
63690;SDS011;49837;57.280;27.070;2022-09-09T02:13:21;3.0;;;1.5;;
63690;SDS011;49837;57.280;27.070;2022-09-09T02:14:22;3.7;;;1.7;;
63690;SDS011;49837;57.280;27.070;2022-09-09T02:15:26;6.2;;;2.0;;
63690;SDS011;49837;57.280;27.070;2022-09-09T02:16:35;4.5;;;1.8;;
63690;SDS011;49837;57.280;27.070;2022-09-09T02:17:28;3.9;;;1.8;;
63690;SDS011;49837;57.280;27.070;2022-09-09T02:18:32;4.2;;;1.6;;
63690;SDS011;49837;57.280;27.070;2022-09-09T02:19:32;3.4;;;1.5;;
63690;SDS011;49837;57.280;27.070;2022-09-09T02:20:34;4.5;;;1.6;;
63690;SDS011;49837;57.280;27.070;2022-09-09T02:21:34;2.3;;;1.4;;
63690;SDS011;49837;57.280;27.070;2022-09-09T02:22:35;6.0;;;1.6;;
63690;SDS011;49837;57.280;27.070;2022-09-09T02:23:36;4.0;;;1.5;;
63690;SDS011;49837;57.280;27.070;2022-09-09T02:24:37;3.2;;;1.6;;
63690;SDS011;49837;57.280;27.070;2022-09-09T02:25:37;3.5;;;1.5;;
63690;SDS011;49837;57.280;27.070;2022-09-09T02:26:39;3.6;;;1.7;;
63690;SDS011;49837;57.280;27.070;2022-09-09T02:27:39;5.9;;;1.6;;
63690;SDS011;49837;57.280;27.070;2022-09-09T02:28:38;4.9;;;1.8;;
63690;SDS011;49837;57.280;27.070;2022-09-09T02:29:40;3.4;;;2.0;;
63690;SDS011;49837;57.280;27.070;2022-09-09T02:30:39;2.6;;;1.3;;
63690;SDS011;49837;57.280;27.070;2022-09-09T02:31:39;3.4;;;1.5;;
63690;SDS011;49837;57.280;27.070;2022-09-09T02:32:41;4.0;;;1.6;;
63690;SDS011;49837;57.280;27.070;2022-09-09T02:33:42;3.4;;;1.8;;
63690;SDS011;49837;57.280;27.070;2022-09-09T02:34:45;3.6;;;1.5;;
63690;SDS011;49837;57.280;27.070;2022-09-09T02:35:48;2.0;;;1.4;;
63690;SDS011;49837;57.280;27.070;2022-09-09T02:36:49;3.9;;;1.9;;
63690;SDS011;49837;57.280;27.070;2022-09-09T02:37:50;3.5;;;1.5;;
63690;SDS011;49837;57.280;27.070;2022-09-09T02:38:50;4.7;;;1.5;;
63690;SDS011;49837;57.280;27.070;2022-09-09T02:39:50;2.6;;;1.5;;
63690;SDS011;49837;57.280;27.070;2022-09-09T02:40:51;5.9;;;1.7;;
63690;SDS011;49837;57.280;27.070;2022-09-09T02:41:51;3.2;;;1.6;;
63690;SDS011;49837;57.280;27.070;2022-09-09T02:42:51;3.0;;;1.5;;
63690;SDS011;49837;57.280;27.070;2022-09-09T02:43:52;3.4;;;1.6;;
63690;SDS011;49837;57.280;27.070;2022-09-09T02:44:52;2.5;;;1.4;;
63690;SDS011;49837;57.280;27.070;2022-09-09T02:48:04;5.5;;;1.8;;
63690;SDS011;49837;57.280;27.070;2022-09-09T02:49:09;3.5;;;1.8;;
63690;SDS011;49837;57.280;27.070;2022-09-09T02:50:26;2.8;;;1.5;;
63690;SDS011;49837;57.280;27.070;2022-09-09T02:52:18;4.7;;;1.6;;
63690;SDS011;49837;57.280;27.070;2022-09-09T02:53:19;3.3;;;1.6;;
63690;SDS011;49837;57.280;27.070;2022-09-09T02:54:27;5.1;;;1.9;;
63690;SDS011;49837;57.280;27.070;2022-09-09T02:56:24;7.7;;;3.0;;
63690;SDS011;49837;57.280;27.070;2022-09-09T02:57:27;12.0;;;4.4;;
63690;SDS011;49837;57.280;27.070;2022-09-09T02:58:27;16.8;;;5.6;;
63690;SDS011;49837;57.280;27.070;2022-09-09T02:59:27;14.6;;;5.8;;
63690;SDS011;49837;57.280;27.070;2022-09-09T03:00:27;17.9;;;6.5;;
63690;SDS011;49837;57.280;27.070;2022-09-09T03:01:27;18.3;;;6.9;;
63690;SDS011;49837;57.280;27.070;2022-09-09T03:02:28;21.5;;;7.2;;
63690;SDS011;49837;57.280;27.070;2022-09-09T03:03:28;17.2;;;6.9;;
63690;SDS011;49837;57.280;27.070;2022-09-09T03:04:28;18.0;;;7.0;;
63690;SDS011;49837;57.280;27.070;2022-09-09T03:05:29;23.3;;;8.8;;
63690;SDS011;49837;57.280;27.070;2022-09-09T03:06:29;23.8;;;8.6;;
63690;SDS011;49837;57.280;27.070;2022-09-09T03:07:30;25.0;;;8.9;;
63690;SDS011;49837;57.280;27.070;2022-09-09T03:08:30;24.2;;;9.5;;
63690;SDS011;49837;57.280;27.070;2022-09-09T03:09:30;25.9;;;8.8;;
63690;SDS011;49837;57.280;27.070;2022-09-09T03:10:31;22.6;;;8.2;;
63690;SDS011;49837;57.280;27.070;2022-09-09T03:11:31;17.6;;;8.0;;
63690;SDS011;49837;57.280;27.070;2022-09-09T03:12:31;20.5;;;7.7;;
63690;SDS011;49837;57.280;27.070;2022-09-09T03:13:31;16.2;;;6.4;;
63690;SDS011;49837;57.280;27.070;2022-09-09T03:14:32;12.8;;;5.8;;
63690;SDS011;49837;57.280;27.070;2022-09-09T03:15:32;17.4;;;6.4;;
63690;SDS011;49837;57.280;27.070;2022-09-09T03:16:32;9.9;;;4.4;;
63690;SDS011;49837;57.280;27.070;2022-09-09T03:17:33;10.0;;;4.0;;
63690;SDS011;49837;57.280;27.070;2022-09-09T03:18:33;9.9;;;3.6;;
63690;SDS011;49837;57.280;27.070;2022-09-09T03:19:33;10.8;;;4.2;;
63690;SDS011;49837;57.280;27.070;2022-09-09T03:20:34;13.8;;;4.8;;
63690;SDS011;49837;57.280;27.070;2022-09-09T03:21:34;9.1;;;4.0;;
63690;SDS011;49837;57.280;27.070;2022-09-09T03:22:34;7.5;;;3.3;;
63690;SDS011;49837;57.280;27.070;2022-09-09T03:23:35;7.2;;;2.9;;
63690;SDS011;49837;57.280;27.070;2022-09-09T03:24:35;8.9;;;3.5;;
63690;SDS011;49837;57.280;27.070;2022-09-09T03:25:35;5.8;;;2.7;;
63690;SDS011;49837;57.280;27.070;2022-09-09T03:26:36;10.6;;;2.7;;
63690;SDS011;49837;57.280;27.070;2022-09-09T03:27:36;12.2;;;2.8;;
63690;SDS011;49837;57.280;27.070;2022-09-09T03:28:36;17.5;;;3.5;;
63690;SDS011;49837;57.280;27.070;2022-09-09T03:29:37;17.2;;;4.0;;
63690;SDS011;49837;57.280;27.070;2022-09-09T03:30:37;13.3;;;3.2;;
63690;SDS011;49837;57.280;27.070;2022-09-09T03:31:38;9.3;;;2.8;;
63690;SDS011;49837;57.280;27.070;2022-09-09T03:32:38;7.2;;;2.9;;
63690;SDS011;49837;57.280;27.070;2022-09-09T03:33:38;9.5;;;3.0;;
63690;SDS011;49837;57.280;27.070;2022-09-09T03:34:38;7.7;;;2.5;;
63690;SDS011;49837;57.280;27.070;2022-09-09T03:35:38;7.3;;;2.4;;
63690;SDS011;49837;57.280;27.070;2022-09-09T03:36:41;5.0;;;2.3;;
63690;SDS011;49837;57.280;27.070;2022-09-09T03:37:41;9.1;;;3.5;;
63690;SDS011;49837;57.280;27.070;2022-09-09T03:38:41;11.5;;;2.9;;
63690;SDS011;49837;57.280;27.070;2022-09-09T03:39:42;5.1;;;2.4;;
63690;SDS011;49837;57.280;27.070;2022-09-09T03:40:49;4.7;;;2.3;;
63690;SDS011;49837;57.280;27.070;2022-09-09T03:41:46;4.5;;;2.3;;
63690;SDS011;49837;57.280;27.070;2022-09-09T03:42:46;6.3;;;2.1;;
63690;SDS011;49837;57.280;27.070;2022-09-09T03:43:46;4.8;;;2.3;;
63690;SDS011;49837;57.280;27.070;2022-09-09T03:44:47;7.4;;;2.2;;
63690;SDS011;49837;57.280;27.070;2022-09-09T03:45:47;5.3;;;2.3;;
63690;SDS011;49837;57.280;27.070;2022-09-09T03:46:47;3.8;;;2.2;;
63690;SDS011;49837;57.280;27.070;2022-09-09T03:47:48;4.3;;;2.2;;
63690;SDS011;49837;57.280;27.070;2022-09-09T03:48:48;4.9;;;2.4;;
63690;SDS011;49837;57.280;27.070;2022-09-09T03:49:48;3.7;;;2.1;;
63690;SDS011;49837;57.280;27.070;2022-09-09T03:50:49;3.2;;;1.9;;
63690;SDS011;49837;57.280;27.070;2022-09-09T03:51:49;6.7;;;2.4;;
63690;SDS011;49837;57.280;27.070;2022-09-09T03:52:49;4.3;;;2.3;;
63690;SDS011;49837;57.280;27.070;2022-09-09T03:53:50;4.4;;;2.0;;
63690;SDS011;49837;57.280;27.070;2022-09-09T03:54:50;6.6;;;2.5;;
63690;SDS011;49837;57.280;27.070;2022-09-09T03:55:51;6.7;;;2.5;;
63690;SDS011;49837;57.280;27.070;2022-09-09T03:56:50;4.2;;;2.6;;
63690;SDS011;49837;57.280;27.070;2022-09-09T03:57:51;4.4;;;2.9;;
63690;SDS011;49837;57.280;27.070;2022-09-09T03:58:51;5.6;;;3.8;;
63690;SDS011;49837;57.280;27.070;2022-09-09T03:59:52;5.9;;;2.8;;
63690;SDS011;49837;57.280;27.070;2022-09-09T04:00:55;9.2;;;3.1;;
63690;SDS011;49837;57.280;27.070;2022-09-09T04:01:52;4.5;;;2.7;;
63690;SDS011;49837;57.280;27.070;2022-09-09T04:02:52;5.2;;;2.8;;
63690;SDS011;49837;57.280;27.070;2022-09-09T04:03:53;7.2;;;2.5;;
63690;SDS011;49837;57.280;27.070;2022-09-09T04:04:53;6.0;;;2.3;;
63690;SDS011;49837;57.280;27.070;2022-09-09T04:05:54;6.5;;;2.1;;
63690;SDS011;49837;57.280;27.070;2022-09-09T04:06:54;4.3;;;2.0;;
63690;SDS011;49837;57.280;27.070;2022-09-09T04:07:54;4.5;;;2.1;;
63690;SDS011;49837;57.280;27.070;2022-09-09T04:08:54;8.3;;;2.0;;
63690;SDS011;49837;57.280;27.070;2022-09-09T04:09:55;5.6;;;2.0;;
63690;SDS011;49837;57.280;27.070;2022-09-09T04:10:55;8.3;;;3.0;;
63690;SDS011;49837;57.280;27.070;2022-09-09T04:11:55;12.1;;;2.8;;
63690;SDS011;49837;57.280;27.070;2022-09-09T04:12:55;7.2;;;2.7;;
63690;SDS011;49837;57.280;27.070;2022-09-09T04:13:56;11.1;;;3.3;;
63690;SDS011;49837;57.280;27.070;2022-09-09T04:14:56;7.1;;;3.0;;
63690;SDS011;49837;57.280;27.070;2022-09-09T04:15:58;6.4;;;3.0;;
63690;SDS011;49837;57.280;27.070;2022-09-09T04:16:57;5.8;;;3.1;;
63690;SDS011;49837;57.280;27.070;2022-09-09T04:17:57;8.0;;;3.0;;
63690;SDS011;49837;57.280;27.070;2022-09-09T04:18:57;12.2;;;3.5;;
63690;SDS011;49837;57.280;27.070;2022-09-09T04:19:58;6.2;;;3.4;;
63690;SDS011;49837;57.280;27.070;2022-09-09T04:20:58;8.9;;;3.7;;
63690;SDS011;49837;57.280;27.070;2022-09-09T04:21:58;8.1;;;3.6;;
63690;SDS011;49837;57.280;27.070;2022-09-09T04:22:59;6.8;;;3.1;;
63690;SDS011;49837;57.280;27.070;2022-09-09T04:23:59;5.1;;;2.7;;
63690;SDS011;49837;57.280;27.070;2022-09-09T04:24:59;5.1;;;2.8;;
63690;SDS011;49837;57.280;27.070;2022-09-09T04:26:00;4.9;;;2.6;;
63690;SDS011;49837;57.280;27.070;2022-09-09T04:27:00;10.2;;;2.8;;
63690;SDS011;49837;57.280;27.070;2022-09-09T04:28:01;8.6;;;2.4;;
63690;SDS011;49837;57.280;27.070;2022-09-09T04:29:01;5.6;;;2.1;;
63690;SDS011;49837;57.280;27.070;2022-09-09T04:30:01;7.9;;;2.9;;
63690;SDS011;49837;57.280;27.070;2022-09-09T04:31:08;6.5;;;2.2;;
63690;SDS011;49837;57.280;27.070;2022-09-09T04:32:06;7.2;;;2.4;;
63690;SDS011;49837;57.280;27.070;2022-09-09T04:33:06;3.4;;;2.0;;
63690;SDS011;49837;57.280;27.070;2022-09-09T04:34:06;6.4;;;2.1;;
63690;SDS011;49837;57.280;27.070;2022-09-09T04:35:07;6.3;;;2.2;;
63690;SDS011;49837;57.280;27.070;2022-09-09T04:36:07;4.8;;;2.3;;
63690;SDS011;49837;57.280;27.070;2022-09-09T04:37:07;7.0;;;3.5;;
63690;SDS011;49837;57.280;27.070;2022-09-09T04:38:08;5.5;;;2.3;;
63690;SDS011;49837;57.280;27.070;2022-09-09T04:39:08;6.8;;;2.8;;
63690;SDS011;49837;57.280;27.070;2022-09-09T04:40:08;5.7;;;2.6;;
63690;SDS011;49837;57.280;27.070;2022-09-09T04:41:09;5.4;;;2.4;;
63690;SDS011;49837;57.280;27.070;2022-09-09T04:42:09;4.4;;;2.3;;
63690;SDS011;49837;57.280;27.070;2022-09-09T04:43:09;5.3;;;2.3;;
63690;SDS011;49837;57.280;27.070;2022-09-09T04:44:10;5.4;;;2.3;;
63690;SDS011;49837;57.280;27.070;2022-09-09T04:45:10;4.3;;;2.4;;
63690;SDS011;49837;57.280;27.070;2022-09-09T04:46:11;3.9;;;2.4;;
63690;SDS011;49837;57.280;27.070;2022-09-09T04:47:11;6.7;;;2.7;;
63690;SDS011;49837;57.280;27.070;2022-09-09T04:48:11;4.4;;;2.3;;
63690;SDS011;49837;57.280;27.070;2022-09-09T04:49:12;5.8;;;2.6;;
63690;SDS011;49837;57.280;27.070;2022-09-09T04:50:12;5.6;;;2.5;;
63690;SDS011;49837;57.280;27.070;2022-09-09T04:51:12;4.9;;;2.6;;
63690;SDS011;49837;57.280;27.070;2022-09-09T04:52:13;5.2;;;2.9;;
63690;SDS011;49837;57.280;27.070;2022-09-09T04:53:13;8.3;;;3.8;;
63690;SDS011;49837;57.280;27.070;2022-09-09T04:54:13;8.1;;;3.9;;
63690;SDS011;49837;57.280;27.070;2022-09-09T04:55:14;8.8;;;3.9;;
63690;SDS011;49837;57.280;27.070;2022-09-09T04:56:15;8.0;;;4.4;;
63690;SDS011;49837;57.280;27.070;2022-09-09T04:57:14;10.4;;;6.5;;
63690;SDS011;49837;57.280;27.070;2022-09-09T04:58:15;8.1;;;4.7;;
63690;SDS011;49837;57.280;27.070;2022-09-09T04:59:15;11.3;;;4.0;;
63690;SDS011;49837;57.280;27.070;2022-09-09T05:00:15;9.8;;;4.6;;
63690;SDS011;49837;57.280;27.070;2022-09-09T05:01:17;11.6;;;4.7;;
63690;SDS011;49837;57.280;27.070;2022-09-09T05:02:16;12.7;;;5.4;;
63690;SDS011;49837;57.280;27.070;2022-09-09T05:03:16;15.7;;;6.2;;
63690;SDS011;49837;57.280;27.070;2022-09-09T05:04:17;15.3;;;6.5;;
63690;SDS011;49837;57.280;27.070;2022-09-09T05:05:17;14.2;;;6.2;;
63690;SDS011;49837;57.280;27.070;2022-09-09T05:06:18;19.8;;;8.1;;
63690;SDS011;49837;57.280;27.070;2022-09-09T05:07:18;14.8;;;6.0;;
63690;SDS011;49837;57.280;27.070;2022-09-09T05:08:18;15.6;;;6.6;;
63690;SDS011;49837;57.280;27.070;2022-09-09T05:09:18;14.4;;;6.0;;
63690;SDS011;49837;57.280;27.070;2022-09-09T05:10:19;14.6;;;5.6;;
63690;SDS011;49837;57.280;27.070;2022-09-09T05:11:26;17.0;;;5.3;;
63690;SDS011;49837;57.280;27.070;2022-09-09T05:12:20;13.4;;;5.6;;
63690;SDS011;49837;57.280;27.070;2022-09-09T05:13:20;13.3;;;5.4;;
63690;SDS011;49837;57.280;27.070;2022-09-09T05:14:20;13.5;;;5.7;;
63690;SDS011;49837;57.280;27.070;2022-09-09T05:15:21;14.9;;;5.7;;
63690;SDS011;49837;57.280;27.070;2022-09-09T05:16:21;15.1;;;5.9;;
63690;SDS011;49837;57.280;27.070;2022-09-09T05:17:21;14.4;;;5.1;;
63690;SDS011;49837;57.280;27.070;2022-09-09T05:18:22;12.6;;;4.8;;
63690;SDS011;49837;57.280;27.070;2022-09-09T05:19:22;12.3;;;4.6;;
63690;SDS011;49837;57.280;27.070;2022-09-09T05:20:22;12.4;;;3.9;;
63690;SDS011;49837;57.280;27.070;2022-09-09T05:21:23;6.3;;;2.8;;
63690;SDS011;49837;57.280;27.070;2022-09-09T05:22:23;7.8;;;2.3;;
63690;SDS011;49837;57.280;27.070;2022-09-09T05:23:23;8.2;;;2.9;;
63690;SDS011;49837;57.280;27.070;2022-09-09T05:24:24;9.5;;;2.5;;
63690;SDS011;49837;57.280;27.070;2022-09-09T05:25:24;5.8;;;2.0;;
63690;SDS011;49837;57.280;27.070;2022-09-09T05:26:24;6.0;;;2.5;;
63690;SDS011;49837;57.280;27.070;2022-09-09T05:27:25;8.1;;;2.4;;
63690;SDS011;49837;57.280;27.070;2022-09-09T05:28:25;7.7;;;2.2;;
63690;SDS011;49837;57.280;27.070;2022-09-09T05:29:25;8.3;;;2.0;;
63690;SDS011;49837;57.280;27.070;2022-09-09T05:30:26;9.4;;;2.2;;
63690;SDS011;49837;57.280;27.070;2022-09-09T05:31:26;13.6;;;2.5;;
63690;SDS011;49837;57.280;27.070;2022-09-09T05:32:26;11.3;;;2.6;;
63690;SDS011;49837;57.280;27.070;2022-09-09T05:33:28;5.7;;;1.8;;
63690;SDS011;49837;57.280;27.070;2022-09-09T05:34:27;5.4;;;1.7;;
63690;SDS011;49837;57.280;27.070;2022-09-09T05:35:27;8.3;;;2.3;;
63690;SDS011;49837;57.280;27.070;2022-09-09T05:36:28;6.3;;;1.6;;
63690;SDS011;49837;57.280;27.070;2022-09-09T05:37:28;7.8;;;1.9;;
63690;SDS011;49837;57.280;27.070;2022-09-09T05:38:29;4.8;;;1.8;;
63690;SDS011;49837;57.280;27.070;2022-09-09T05:39:29;3.7;;;1.7;;
63690;SDS011;49837;57.280;27.070;2022-09-09T05:40:29;4.1;;;1.4;;
63690;SDS011;49837;57.280;27.070;2022-09-09T05:41:30;4.3;;;1.5;;
63690;SDS011;49837;57.280;27.070;2022-09-09T05:42:30;4.1;;;1.5;;
63690;SDS011;49837;57.280;27.070;2022-09-09T05:43:30;2.4;;;1.4;;
63690;SDS011;49837;57.280;27.070;2022-09-09T05:44:31;3.5;;;1.4;;
63690;SDS011;49837;57.280;27.070;2022-09-09T05:45:31;4.2;;;1.4;;
63690;SDS011;49837;57.280;27.070;2022-09-09T05:46:31;2.2;;;1.7;;
63690;SDS011;49837;57.280;27.070;2022-09-09T05:47:32;3.4;;;1.6;;
63690;SDS011;49837;57.280;27.070;2022-09-09T05:48:33;2.1;;;1.5;;
63690;SDS011;49837;57.280;27.070;2022-09-09T05:49:33;3.2;;;1.6;;
63690;SDS011;49837;57.280;27.070;2022-09-09T05:50:33;2.8;;;1.3;;
63690;SDS011;49837;57.280;27.070;2022-09-09T05:51:33;3.6;;;1.3;;
63690;SDS011;49837;57.280;27.070;2022-09-09T05:52:34;2.8;;;1.5;;
63690;SDS011;49837;57.280;27.070;2022-09-09T05:53:34;3.6;;;1.7;;
63690;SDS011;49837;57.280;27.070;2022-09-09T05:54:34;4.3;;;1.7;;
63690;SDS011;49837;57.280;27.070;2022-09-09T05:55:35;4.5;;;1.7;;
63690;SDS011;49837;57.280;27.070;2022-09-09T05:56:35;3.4;;;1.7;;
63690;SDS011;49837;57.280;27.070;2022-09-09T05:57:35;3.4;;;1.5;;
63690;SDS011;49837;57.280;27.070;2022-09-09T05:58:36;3.2;;;1.3;;
63690;SDS011;49837;57.280;27.070;2022-09-09T05:59:36;2.2;;;1.2;;
63690;SDS011;49837;57.280;27.070;2022-09-09T06:00:36;2.1;;;1.3;;
63690;SDS011;49837;57.280;27.070;2022-09-09T06:01:37;3.0;;;1.2;;
63690;SDS011;49837;57.280;27.070;2022-09-09T06:02:37;3.5;;;1.5;;
63690;SDS011;49837;57.280;27.070;2022-09-09T06:03:38;2.9;;;1.3;;
63690;SDS011;49837;57.280;27.070;2022-09-09T06:04:38;4.1;;;1.5;;
63690;SDS011;49837;57.280;27.070;2022-09-09T06:05:38;2.9;;;1.3;;
63690;SDS011;49837;57.280;27.070;2022-09-09T06:06:39;2.6;;;1.3;;
63690;SDS011;49837;57.280;27.070;2022-09-09T06:07:39;2.5;;;1.3;;
63690;SDS011;49837;57.280;27.070;2022-09-09T06:08:40;3.8;;;1.2;;
63690;SDS011;49837;57.280;27.070;2022-09-09T06:09:40;3.0;;;1.3;;
63690;SDS011;49837;57.280;27.070;2022-09-09T06:10:40;1.8;;;1.1;;
63690;SDS011;49837;57.280;27.070;2022-09-09T06:11:40;3.4;;;1.1;;
63690;SDS011;49837;57.280;27.070;2022-09-09T06:12:41;3.4;;;1.2;;
63690;SDS011;49837;57.280;27.070;2022-09-09T06:13:41;4.3;;;1.7;;
63690;SDS011;49837;57.280;27.070;2022-09-09T06:14:42;2.7;;;1.2;;
63690;SDS011;49837;57.280;27.070;2022-09-09T06:15:51;10.6;;;1.5;;
63690;SDS011;49837;57.280;27.070;2022-09-09T06:16:44;9.2;;;1.8;;
63690;SDS011;49837;57.280;27.070;2022-09-09T06:17:44;11.4;;;1.8;;
63690;SDS011;49837;57.280;27.070;2022-09-09T06:18:44;4.2;;;1.3;;
63690;SDS011;49837;57.280;27.070;2022-09-09T06:19:45;4.0;;;1.3;;
63690;SDS011;49837;57.280;27.070;2022-09-09T06:20:58;2.2;;;1.1;;
63690;SDS011;49837;57.280;27.070;2022-09-09T06:21:50;2.5;;;1.0;;
63690;SDS011;49837;57.280;27.070;2022-09-09T06:22:51;3.4;;;1.3;;
63690;SDS011;49837;57.280;27.070;2022-09-09T06:23:51;1.9;;;1.1;;
63690;SDS011;49837;57.280;27.070;2022-09-09T06:24:54;1.6;;;1.0;;
63690;SDS011;49837;57.280;27.070;2022-09-09T06:26:05;2.7;;;1.0;;
63690;SDS011;49837;57.280;27.070;2022-09-09T06:26:57;1.9;;;1.1;;
63690;SDS011;49837;57.280;27.070;2022-09-09T06:27:58;3.0;;;1.2;;
63690;SDS011;49837;57.280;27.070;2022-09-09T06:28:58;2.3;;;1.2;;
63690;SDS011;49837;57.280;27.070;2022-09-09T06:29:58;2.5;;;1.1;;
63690;SDS011;49837;57.280;27.070;2022-09-09T06:30:59;3.9;;;1.2;;
63690;SDS011;49837;57.280;27.070;2022-09-09T06:31:59;4.2;;;1.2;;
63690;SDS011;49837;57.280;27.070;2022-09-09T06:32:59;2.3;;;1.1;;
63690;SDS011;49837;57.280;27.070;2022-09-09T06:34:00;2.0;;;1.2;;
63690;SDS011;49837;57.280;27.070;2022-09-09T06:35:00;3.1;;;1.3;;
63690;SDS011;49837;57.280;27.070;2022-09-09T06:36:01;2.3;;;1.1;;
63690;SDS011;49837;57.280;27.070;2022-09-09T06:37:01;3.0;;;1.1;;
63690;SDS011;49837;57.280;27.070;2022-09-09T06:38:02;1.7;;;0.9;;
63690;SDS011;49837;57.280;27.070;2022-09-09T06:39:02;1.5;;;0.8;;
63690;SDS011;49837;57.280;27.070;2022-09-09T06:40:02;3.1;;;1.0;;
63690;SDS011;49837;57.280;27.070;2022-09-09T06:41:03;1.6;;;0.9;;
63690;SDS011;49837;57.280;27.070;2022-09-09T06:42:03;2.0;;;1.1;;
63690;SDS011;49837;57.280;27.070;2022-09-09T06:43:03;3.2;;;1.1;;
63690;SDS011;49837;57.280;27.070;2022-09-09T06:44:04;2.0;;;1.1;;